Time;durP1;ratioP1;P1;durP2;ratioP2;P2;SDS_P1;SDS_P2;PMS_P1;PMS_P2;Temp;Humidity;BMP_temperature;BMP_pressure;BME280_temperature;BME280_humidity;BME280_pressure;Samples;Min_cycle;Max_cycle;Signal;HPM_P1;HPM_P2
2020/12/07 00:00:40;;;;;;;12.20;5.75;;;;;;;-7.84;75.14;102338.78;1795167;79;21638;-74
2020/12/07 00:03:08;;;;;;;14.15;6.65;;;;;;;-7.89;75.20;102339.54;1789562;79;21194;-74
2020/12/07 00:05:36;;;;;;;12.90;6.03;;;;;;;-7.94;75.26;102340.27;1796903;79;22329;-74
2020/12/07 00:08:05;;;;;;;14.80;6.37;;;;;;;-7.96;75.31;102348.63;1767037;80;21210;-74
2020/12/07 00:10:34;;;;;;;11.20;5.47;;;;;;;-7.95;75.31;102353.34;1803446;78;21623;-73
2020/12/07 00:13:01;;;;;;;12.10;5.70;;;;;;;-7.98;75.35;102353.52;1817390;77;21216;-74
2020/12/07 00:15:29;;;;;;;14.78;6.05;;;;;;;-8.01;75.37;102346.75;1810604;78;21113;-74
2020/12/07 00:18:01;;;;;;;14.70;6.33;;;;;;;-8.06;75.45;102355.25;1803238;77;21563;-74
2020/12/07 00:20:28;;;;;;;15.05;5.42;;;;;;;-8.09;75.47;102358.06;1796209;78;21191;-74
2020/12/07 00:22:56;;;;;;;16.82;7.70;;;;;;;-8.11;75.54;102359.90;1819323;78;21542;-74
2020/12/07 00:25:24;;;;;;;15.13;7.12;;;;;;;-8.12;75.54;102355.64;1805291;78;21140;-74
2020/12/07 00:27:51;;;;;;;13.25;7.00;;;;;;;-8.14;75.57;102366.09;1797568;78;21164;-74
2020/12/07 00:30:18;;;;;;;17.50;7.35;;;;;;;-8.15;75.55;102358.42;1813387;78;21768;-74
2020/12/07 00:32:46;;;;;;;11.45;5.45;;;;;;;-8.15;75.58;102358.42;1812699;77;21179;-74
2020/12/07 00:35:13;;;;;;;13.45;6.83;;;;;;;-8.15;75.64;102355.83;1797186;79;21606;-74
2020/12/07 00:37:41;;;;;;;13.40;6.17;;;;;;;-8.16;75.59;102355.44;1796310;79;21637;-74
2020/12/07 00:40:08;;;;;;;16.35;8.05;;;;;;;-8.18;75.60;102358.59;1787783;79;21162;-74
2020/12/07 00:42:36;;;;;;;15.43;7.75;;;;;;;-8.17;75.58;102361.55;1796983;79;21316;-73
2020/12/07 00:45:03;;;;;;;15.63;7.60;;;;;;;-8.18;75.58;102360.72;1797194;77;21218;-74
2020/12/07 00:47:31;;;;;;;17.25;7.42;;;;;;;-8.21;75.59;102362.66;1782539;80;21643;-74
2020/12/07 00:49:58;;;;;;;14.73;7.12;;;;;;;-8.22;75.59;102363.60;1801537;79;21586;-74
2020/12/07 00:52:26;;;;;;;13.22;6.65;;;;;;;-8.23;75.58;102364.50;1800898;79;21116;-74
2020/12/07 00:54:53;;;;;;;13.95;7.28;;;;;;;-8.24;75.54;102364.14;1792726;79;21529;-73
2020/12/07 00:57:20;;;;;;;15.32;7.12;;;;;;;-8.29;75.51;102364.39;1803198;79;21662;-74
2020/12/07 00:59:48;;;;;;;16.27;7.40;;;;;;;-8.33;75.51;102358.55;1811536;79;21170;-73
2020/12/07 01:02:16;;;;;;;12.65;5.42;;;;;;;-8.36;75.53;102361.32;1796724;79;21397;-73
2020/12/07 01:04:43;;;;;;;13.40;6.05;;;;;;;-8.36;75.55;102354.02;1796456;79;21657;-75
2020/12/07 01:07:12;;;;;;;13.25;7.28;;;;;;;-8.37;75.52;102362.26;1790696;79;21189;-75
2020/12/07 01:09:40;;;;;;;12.35;5.83;;;;;;;-8.39;75.53;102358.97;1789697;79;21154;-75
2020/12/07 01:12:08;;;;;;;14.18;7.20;;;;;;;-8.42;75.55;102357.85;1787918;79;21143;-75
2020/12/07 01:14:40;;;;;;;14.68;6.87;;;;;;;-8.45;75.54;102350.72;1798775;79;21127;-75
2020/12/07 01:17:08;;;;;;;14.13;7.40;;;;;;;-8.47;75.55;102357.27;1784196;80;21182;-73
2020/12/07 01:19:36;;;;;;;14.58;6.58;;;;;;;-8.49;75.60;102351.33;1805963;79;21160;-74
2020/12/07 01:22:05;;;;;;;10.95;5.87;;;;;;;-8.53;75.59;102342.08;1791423;79;21135;-73
2020/12/07 01:24:33;;;;;;;13.53;6.15;;;;;;;-8.55;75.61;102339.59;1788304;77;21258;-73
2020/12/07 01:27:03;;;;;;;14.05;6.53;;;;;;;-8.56;75.67;102348.73;1797171;79;21143;-74
2020/12/07 01:29:31;;;;;;;13.50;5.92;;;;;;;-8.59;75.70;102343.25;1807080;79;21135;-74
2020/12/07 01:31:59;;;;;;;13.75;7.22;;;;;;;-8.62;75.70;102341.30;1795660;79;21480;-74
2020/12/07 01:34:27;;;;;;;14.65;6.40;;;;;;;-8.65;75.70;102336.30;1795588;77;21175;-74
2020/12/07 01:36:55;;;;;;;14.70;6.15;;;;;;;-8.65;75.75;102332.41;1794246;79;21566;-75
2020/12/07 01:39:23;;;;;;;17.15;6.35;;;;;;;-8.65;75.73;102340.18;1805471;79;21171;-74
2020/12/07 01:41:51;;;;;;;15.03;6.55;;;;;;;-8.66;75.71;102335.94;1787868;79;21835;-75
2020/12/07 01:44:20;;;;;;;12.05;5.80;;;;;;;-8.68;75.65;102332.62;1797914;77;21183;-75
2020/12/07 01:46:48;;;;;;;12.28;5.78;;;;;;;-8.69;75.62;102330.92;1793332;79;21171;-75
2020/12/07 01:49:15;;;;;;;15.00;6.47;;;;;;;-8.69;75.60;102325.75;1756025;79;21623;-74
2020/12/07 01:51:43;;;;;;;11.97;6.10;;;;;;;-8.69;75.56;102333.52;1789920;79;21586;-75
2020/12/07 01:54:12;;;;;;;12.73;5.87;;;;;;;-8.74;75.55;102326.02;1785593;79;21151;-75
2020/12/07 01:56:40;;;;;;;11.55;5.72;;;;;;;-8.73;75.55;102325.09;1767272;79;21453;-74
2020/12/07 01:59:09;;;;;;;11.83;5.62;;;;;;;-8.72;75.51;102328.52;1794302;79;21203;-74
2020/12/07 02:01:38;;;;;;;15.85;7.20;;;;;;;-8.72;75.48;102329.80;1786236;79;21134;-75
2020/12/07 02:04:06;;;;;;;12.40;5.62;;;;;;;-8.75;75.48;102333.43;1758184;80;21190;-75
2020/12/07 02:06:33;;;;;;;16.32;6.50;;;;;;;-8.76;75.46;102323.97;1796147;79;21156;-74
2020/12/07 02:09:01;;;;;;;14.60;6.17;;;;;;;-8.76;75.43;102317.50;1787536;79;21919;-74
2020/12/07 02:11:31;;;;;;;13.80;6.92;;;;;;;-8.80;75.40;102316.01;1787682;79;21225;-75
2020/12/07 02:13:58;;;;;;;12.55;6.12;;;;;;;-8.82;75.44;102321.27;1788094;79;21602;-75
2020/12/07 02:16:26;;;;;;;13.28;5.80;;;;;;;-8.83;75.41;102324.78;1795134;77;21622;-75
2020/12/07 02:18:57;;;;;;;14.13;6.10;;;;;;;-8.83;75.36;102332.55;1802769;79;21171;-75
2020/12/07 02:21:26;;;;;;;13.83;5.72;;;;;;;-8.83;75.37;102333.84;1791577;79;21364;-75
2020/12/07 02:23:55;;;;;;;14.83;5.92;;;;;;;-8.85;75.35;102330.96;1794037;79;21159;-75
2020/12/07 02:26:24;;;;;;;13.30;5.97;;;;;;;-8.87;75.32;102342.72;1791220;79;21146;-75
2020/12/07 02:28:53;;;;;;;11.88;5.72;;;;;;;-8.87;75.29;102339.30;1802224;79;21178;-74
2020/12/07 02:31:23;;;;;;;13.50;5.87;;;;;;;-8.85;75.29;102337.00;1796432;79;21179;-75
2020/12/07 02:33:50;;;;;;;8.98;5.00;;;;;;;-8.89;75.23;102335.48;1813206;79;21310;-74
2020/12/07 02:36:18;;;;;;;13.98;6.25;;;;;;;-8.91;75.18;102336.05;1803987;79;21155;-75
2020/12/07 02:38:50;;;;;;;11.12;4.85;;;;;;;-8.93;75.12;102339.17;1797869;79;21111;-75
2020/12/07 02:41:18;;;;;;;11.03;5.28;;;;;;;-8.92;75.06;102329.18;1814040;79;21190;-75
2020/12/07 02:43:47;;;;;;;12.03;5.08;;;;;;;-8.94;75.05;102326.33;1772475;80;21585;-76
2020/12/07 02:46:15;;;;;;;12.45;5.78;;;;;;;-8.96;75.00;102330.28;1798481;78;21812;-75
2020/12/07 02:48:42;;;;;;;12.70;5.75;;;;;;;-8.98;74.96;102323.08;1772257;79;21594;-75
2020/12/07 02:51:12;;;;;;;11.25;5.10;;;;;;;-9.03;74.98;102316.84;1807069;79;21155;-74
2020/12/07 02:53:40;;;;;;;11.43;5.00;;;;;;;-9.03;75.00;102321.20;1786684;79;21143;-74
2020/12/07 02:56:09;;;;;;;13.80;5.47;;;;;;;-9.05;75.02;102323.89;1803707;79;21159;-74
2020/12/07 02:58:39;;;;;;;13.10;5.85;;;;;;;-9.04;74.98;102322.95;1789999;79;21595;-74
2020/12/07 03:01:07;;;;;;;13.40;5.22;;;;;;;-9.02;74.89;102321.56;1800480;79;21163;-74
2020/12/07 03:03:34;;;;;;;13.10;5.85;;;;;;;-9.03;74.81;102330.25;1788212;79;21570;-74
2020/12/07 03:06:02;;;;;;;15.13;5.83;;;;;;;-9.06;74.79;102326.55;1788163;77;21223;-75
2020/12/07 03:08:29;;;;;;;12.03;5.20;;;;;;;-9.07;74.82;102330.89;1793904;79;21617;-74
2020/12/07 03:10:58;;;;;;;12.05;5.20;;;;;;;-9.08;74.82;102327.94;1792239;79;21324;-76
2020/12/07 03:13:27;;;;;;;12.90;5.80;;;;;;;-9.08;74.77;102342.17;1790946;79;21120;-75
2020/12/07 03:15:57;;;;;;;13.00;5.78;;;;;;;-9.09;74.68;102340.95;1795821;77;21139;-76
2020/12/07 03:18:27;;;;;;;15.30;6.12;;;;;;;-9.10;74.68;102344.47;1799656;79;21127;-74
2020/12/07 03:20:57;;;;;;;11.38;5.47;;;;;;;-9.11;74.60;102347.95;1806684;79;21674;-75
2020/12/07 03:23:24;;;;;;;14.25;5.30;;;;;;;-9.10;74.66;102341.87;1802274;77;22268;-75
2020/12/07 03:25:52;;;;;;;11.40;5.40;;;;;;;-9.10;74.60;102339.29;1787178;79;21215;-74
2020/12/07 03:28:22;;;;;;;12.30;5.20;;;;;;;-9.10;74.49;102342.70;1785421;80;21154;-74
2020/12/07 03:30:50;;;;;;;10.23;4.55;;;;;;;-9.11;74.44;102346.22;1800309;79;21115;-74
2020/12/07 03:33:17;;;;;;;11.08;5.35;;;;;;;-9.10;74.50;102349.18;1806503;77;21127;-73
2020/12/07 03:35:45;;;;;;;9.68;4.50;;;;;;;-9.11;74.42;102347.95;1797544;77;21379;-74
2020/12/07 03:38:14;;;;;;;10.05;4.50;;;;;;;-9.12;74.41;102342.41;1796002;78;21168;-75
2020/12/07 03:40:41;;;;;;;12.25;6.03;;;;;;;-9.09;74.35;102348.72;1809191;77;21187;-75
2020/12/07 03:43:10;;;;;;;11.68;5.10;;;;;;;-9.09;74.32;102337.06;1836189;76;21156;-76
2020/12/07 03:45:43;;;;;;;12.90;5.42;;;;;;;-9.10;74.34;102331.53;1806832;77;21159;-75
2020/12/07 03:48:12;;;;;;;12.98;5.90;;;;;;;-9.11;74.29;102333.72;1802428;77;21418;-73
2020/12/07 03:50:40;;;;;;;13.40;6.03;;;;;;;-9.11;74.25;102339.75;1818288;77;21109;-74
2020/12/07 03:53:08;;;;;;;12.00;5.70;;;;;;;-9.11;74.24;102325.95;1804523;78;21151;-74
2020/12/07 03:55:36;;;;;;;8.98;4.47;;;;;;;-9.11;74.20;102329.41;1803614;77;21194;-75
2020/12/07 03:58:05;;;;;;;10.68;4.62;;;;;;;-9.09;74.21;102325.42;1815203;77;21147;-74
2020/12/07 04:00:33;;;;;;;12.63;5.50;;;;;;;-9.10;74.14;102326.34;1799760;77;21792;-74
2020/12/07 04:03:06;;;;;;;13.18;5.53;;;;;;;-9.09;74.10;102335.31;1810626;77;21151;-75
2020/12/07 04:05:39;;;;;;;10.58;4.97;;;;;;;-9.08;74.09;102337.43;1802829;77;24089;-75
2020/12/07 04:08:08;;;;;;;13.85;5.62;;;;;;;-9.11;74.05;102333.72;1802506;79;21649;-76
2020/12/07 04:10:38;;;;;;;10.90;5.25;;;;;;;-9.11;74.03;102329.83;1821743;77;21081;-75
2020/12/07 04:13:06;;;;;;;13.62;5.25;;;;;;;-9.09;73.99;102334.02;1800097;77;21582;-75
2020/12/07 04:15:33;;;;;;;12.70;5.90;;;;;;;-9.09;73.95;102329.30;1806443;77;21187;-74
2020/12/07 04:18:01;;;;;;;10.32;5.08;;;;;;;-9.09;73.83;102330.59;1806083;77;21607;-75
2020/12/07 04:20:29;;;;;;;12.23;5.80;;;;;;;-9.10;73.75;102338.00;1806148;77;21166;-75
2020/12/07 04:22:57;;;;;;;11.95;5.58;;;;;;;-9.10;73.78;102332.82;1816525;77;21163;-74
2020/12/07 04:25:25;;;;;;;11.68;5.30;;;;;;;-9.09;73.75;102341.78;1804018;77;22527;-76
2020/12/07 04:27:53;;;;;;;11.15;5.50;;;;;;;-9.11;73.76;102335.02;1798830;79;21182;-76
2020/12/07 04:30:21;;;;;;;11.85;5.25;;;;;;;-9.11;73.76;102341.48;1805937;77;21192;-76
2020/12/07 04:32:48;;;;;;;9.93;4.78;;;;;;;-9.13;73.73;102331.23;1809700;77;21159;-76
2020/12/07 04:35:15;;;;;;;11.25;5.78;;;;;;;-9.14;73.66;102333.45;1805986;77;21128;-76
2020/12/07 04:37:43;;;;;;;11.38;5.33;;;;;;;-9.12;73.69;102339.83;1804470;77;21564;-76
2020/12/07 04:40:10;;;;;;;13.05;5.20;;;;;;;-9.13;73.67;102332.52;1811296;77;21223;-75
2020/12/07 04:42:39;;;;;;;10.32;5.42;;;;;;;-9.13;73.66;102329.11;1814363;77;21103;-75
2020/12/07 04:45:09;;;;;;;11.10;5.00;;;;;;;-9.14;73.54;102331.33;1806809;77;21162;-75
2020/12/07 04:47:38;;;;;;;13.38;6.22;;;;;;;-9.18;73.53;102333.69;1810785;77;21136;-75
2020/12/07 04:50:06;;;;;;;12.82;6.05;;;;;;;-9.24;73.52;102324.06;1807975;77;21214;-76
2020/12/07 04:52:34;;;;;;;14.33;5.33;;;;;;;-9.26;73.55;102320.72;1809156;77;21167;-75
2020/12/07 04:55:03;;;;;;;11.75;4.83;;;;;;;-9.29;73.58;102323.47;1794069;77;21142;-75
2020/12/07 04:57:32;;;;;;;11.25;5.55;;;;;;;-9.30;73.62;102315.34;1814780;77;21382;-75
2020/12/07 04:59:59;;;;;;;13.70;5.72;;;;;;;-9.30;73.66;102320.98;1802452;78;21155;-75
2020/12/07 05:02:27;;;;;;;11.57;5.33;;;;;;;-9.31;73.61;102318.86;1814407;77;21367;-75
2020/12/07 05:04:54;;;;;;;13.58;5.83;;;;;;;-9.33;73.65;102317.27;1802060;77;21185;-74
2020/12/07 05:07:22;;;;;;;12.33;5.72;;;;;;;-9.33;73.66;102317.27;1795926;77;21183;-75
2020/12/07 05:09:50;;;;;;;12.07;5.62;;;;;;;-9.37;73.67;102308.84;1768558;80;21099;-74
2020/12/07 05:12:21;;;;;;;11.12;4.85;;;;;;;-9.38;73.71;102307.16;1818363;78;21135;-75
2020/12/07 05:14:49;;;;;;;12.55;5.33;;;;;;;-9.38;73.71;102304.56;1799980;78;21258;-75
2020/12/07 05:17:16;;;;;;;10.35;4.17;;;;;;;-9.39;73.72;102302.91;1803953;77;21131;-74
2020/12/07 05:19:43;;;;;;;11.78;5.17;;;;;;;-9.39;73.75;102295.14;1825401;77;21579;-75
2020/12/07 05:22:14;;;;;;;11.63;5.42;;;;;;;-9.38;73.77;102299.86;1813512;78;21045;-75
2020/12/07 05:24:49;;;;;;;14.53;6.40;;;;;;;-9.37;73.79;102304.13;1803451;77;21706;-75
2020/12/07 05:27:27;;;;;;;11.60;5.27;;;;;;;-9.32;73.81;102304.70;1822336;77;22343;-74
2020/12/07 05:32:34;;;;;;;13.72;6.35;;;;;;;-9.36;73.75;102302.74;1780319;79;21430;-74
2020/12/07 05:35:09;;;;;;;11.97;5.20;;;;;;;-9.29;73.74;102297.59;1820617;76;22792;-74
2020/12/07 05:37:38;;;;;;;14.10;6.33;;;;;;;-9.35;73.63;102303.11;1798387;79;21047;-75
2020/12/07 05:40:12;;;;;;;13.25;6.53;;;;;;;-9.36;73.70;102313.09;1803527;77;22344;-77
2020/12/07 05:42:41;;;;;;;10.38;4.80;;;;;;;-9.34;73.65;102307.84;1816104;77;21104;-76
2020/12/07 05:45:10;;;;;;;13.30;6.05;;;;;;;-9.34;73.58;102311.27;1795968;78;21199;-75
2020/12/07 05:47:39;;;;;;;10.95;5.47;;;;;;;-9.35;73.57;102308.28;1808285;79;21492;-75
2020/12/07 05:50:10;;;;;;;9.60;5.03;;;;;;;-9.34;73.52;102313.85;1792666;78;21182;-75
2020/12/07 05:52:51;;;;;;;11.10;5.28;;;;;;;-9.35;73.52;102317.34;1800969;79;22791;-74
2020/12/07 05:55:21;;;;;;;11.90;5.65;;;;;;;-9.34;73.49;102320.78;1794698;77;26767;-74
2020/12/07 05:58:04;;;;;;;13.18;5.17;;;;;;;-9.32;73.45;102320.22;1807206;79;21594;-74
2020/12/07 06:00:34;;;;;;;10.05;4.47;;;;;;;-9.29;73.39;102323.94;1796365;77;21689;-75
2020/12/07 06:03:06;;;;;;;10.93;4.87;;;;;;;-9.28;73.34;102325.16;1812580;77;21158;-74
2020/12/07 06:05:33;;;;;;;;;;;;;;;-9.26;73.33;102325.06;1811845;77;21209;-75
2020/12/07 06:08:13;;;;;;;8.70;3.85;;;;;;;-9.25;73.37;102320.25;1809311;77;20973;-75
2020/12/07 06:10:57;;;;;;;11.25;5.28;;;;;;;-9.23;73.36;102324.90;1809054;79;21175;-74
2020/12/07 06:13:25;;;;;;;10.75;4.85;;;;;;;-9.23;73.24;102327.02;1796507;79;21108;-75
2020/12/07 06:15:54;;;;;;;12.35;5.05;;;;;;;-9.19;73.22;102320.38;1788600;78;21190;-76
2020/12/07 06:18:34;;;;;;;11.95;4.85;;;;;;;-9.16;73.12;102330.56;1784438;79;21370;-75
2020/12/07 06:21:13;;;;;;;12.93;5.80;;;;;;;-9.14;73.06;102326.98;1788613;79;21150;-76
2020/12/07 06:23:41;;;;;;;11.40;5.12;;;;;;;-9.11;73.03;102325.52;1811271;77;21600;-74
2020/12/07 06:26:14;;;;;;;10.93;4.47;;;;;;;-9.08;72.98;102320.17;1810588;77;21187;-75
2020/12/07 06:28:43;;;;;;;10.18;5.72;;;;;;;-9.03;72.92;102317.31;1797354;79;21041;-74
2020/12/07 06:31:13;;;;;;;10.75;5.05;;;;;;;-9.01;72.81;102315.48;1794511;80;21338;-74
2020/12/07 06:33:46;;;;;;;;;;;;;;;-8.98;72.84;102307.08;1807039;79;21617;-75
2020/12/07 06:36:30;;;;;;;7.67;3.58;;;;;;;-8.95;72.76;102309.94;1803614;79;21292;-75
2020/12/07 06:39:10;;;;;;;12.18;4.55;;;;;;;-8.91;72.70;102311.92;1800141;79;21654;-74
2020/12/07 06:41:43;;;;;;;12.07;5.40;;;;;;;-8.88;72.59;102315.16;1794221;79;21605;-74
2020/12/07 06:44:19;;;;;;;12.65;4.97;;;;;;;-8.84;72.52;102317.11;1804379;77;21583;-74
2020/12/07 06:47:00;;;;;;;10.35;4.97;;;;;;;-8.80;72.52;102311.66;1798079;79;21563;-75
2020/12/07 06:49:48;;;;;;;11.97;4.67;;;;;;;-8.72;72.44;102312.97;1801914;77;21107;-74
2020/12/07 06:52:11;;;;;;;11.75;5.00;;;;;;;-8.65;72.39;102316.44;1795914;77;21083;-75
2020/12/07 06:57:30;;;;;;;13.65;5.70;;;;;;;-8.52;72.08;102301.84;1798476;79;22021;-76
2020/12/07 07:00:02;;;;;;;11.38;5.35;;;;;;;-8.48;71.73;102282.23;1796520;79;21138;-74
2020/12/07 07:02:30;;;;;;;9.70;6.10;;;;;;;-8.44;71.65;102293.61;1794355;79;21196;-75
2020/12/07 07:05:00;;;;;;;10.90;5.00;;;;;;;-8.43;71.44;102293.14;1808872;78;21074;-75
2020/12/07 07:07:30;;;;;;;11.30;5.35;;;;;;;-8.38;71.24;102296.31;1806849;77;21646;-73
2020/12/07 07:09:59;;;;;;;11.20;5.42;;;;;;;-8.36;71.21;102300.42;1792586;79;21368;-74
2020/12/07 07:12:27;;;;;;;8.78;4.47;;;;;;;-8.31;71.09;102293.69;1791317;79;21488;-75
2020/12/07 07:17:46;;;;;;;12.07;5.33;;;;;;;-8.12;70.99;102288.23;1882568;74;22716;-73
2020/12/07 07:20:17;;;;;;;10.82;5.15;;;;;;;-8.11;70.71;102291.20;1834507;77;22050;-73
2020/12/07 07:22:47;;;;;;;11.93;4.55;;;;;;;-8.07;70.55;102299.15;1763728;80;21782;-73
2020/12/07 07:30:29;;;;;;;10.03;5.08;;;;;;;-7.92;69.72;102299.99;1767884;80;21224;-75
2020/12/07 07:32:57;;;;;;;11.48;5.65;;;;;;;-7.86;69.58;102308.70;1772594;79;21158;-74
2020/12/07 07:35:27;;;;;;;12.10;4.83;;;;;;;-7.85;69.33;102296.92;1759602;80;21256;-73
2020/12/07 07:37:55;;;;;;;11.38;4.60;;;;;;;-7.80;69.32;102293.59;1791628;78;21255;-74
2020/12/07 07:40:28;;;;;;;15.25;5.92;;;;;;;-7.73;69.18;102285.41;1773384;79;21200;-73
2020/12/07 07:43:02;;;;;;;12.20;6.00;;;;;;;-7.66;68.96;102289.31;1767853;79;21148;-75
2020/12/07 07:45:38;;;;;;;9.55;4.85;;;;;;;-7.63;68.70;102293.84;1770021;79;21587;-74
2020/12/07 07:48:25;;;;;;;11.97;5.37;;;;;;;-7.58;68.59;102276.67;1769082;79;21180;-75
2020/12/07 08:18:01;;;;;;;10.43;5.58;;;;;;;-7.12;66.79;102277.64;1762482;80;21137;-72
2020/12/07 08:23:13;;;;;;;12.30;5.90;;;;;;;-6.92;66.44;102282.36;1814796;76;22784;-77
2020/12/07 08:25:49;;;;;;;11.38;4.80;;;;;;;-6.93;66.40;102278.11;1771245;79;21175;-74
2020/12/07 08:28:41;;;;;;;11.25;5.28;;;;;;;-6.85;66.37;102281.02;1748522;80;21892;-74
2020/12/07 08:31:16;;;;;;;11.03;6.00;;;;;;;-6.79;66.22;102275.89;1762307;79;28445;-74
2020/12/07 08:34:01;;;;;;;11.47;5.00;;;;;;;-6.64;66.04;102267.56;1868593;76;23292;-75
2020/12/07 08:36:32;;;;;;;12.07;5.47;;;;;;;-6.66;65.73;102260.32;1817063;77;21116;-74
2020/12/07 08:39:00;;;;;;;10.00;4.80;;;;;;;-6.65;65.46;102258.91;1737778;80;21808;-76
2020/12/07 08:41:30;;;;;;;12.40;5.17;;;;;;;-6.63;65.33;102260.12;1753021;80;21126;-75
2020/12/07 08:44:01;;;;;;;11.57;5.15;;;;;;;-6.59;65.47;102271.97;1744551;80;21200;-75
2020/12/07 08:46:34;;;;;;;13.03;7.05;;;;;;;-6.55;65.23;102257.82;1752966;80;21747;-74
2020/12/07 08:49:04;;;;;;;11.85;5.75;;;;;;;-6.52;65.00;102255.02;1773145;79;21234;-75
2020/12/07 08:51:34;;;;;;;10.82;5.42;;;;;;;-6.48;65.03;102257.80;1768616;79;22770;-74
2020/12/07 08:54:02;;;;;;;14.50;5.97;;;;;;;-6.44;65.08;102244.12;1769116;80;21168;-75
2020/12/07 08:56:33;;;;;;;11.65;5.80;;;;;;;-6.37;64.84;102256.59;1773730;79;21207;-73
2020/12/07 08:59:00;;;;;;;10.98;5.25;;;;;;;-6.33;64.45;102238.17;1762014;80;21614;-75
2020/12/07 09:01:31;;;;;;;15.28;5.85;;;;;;;-6.35;64.34;102235.66;1772990;80;21176;-73
2020/12/07 09:04:11;;;;;;;12.65;5.67;;;;;;;-6.33;64.31;102252.48;1777379;80;21650;-73
2020/12/07 09:06:40;;;;;;;14.10;6.20;;;;;;;-6.34;64.12;102249.52;1781858;80;21148;-75
2020/12/07 09:09:08;;;;;;;11.53;5.25;;;;;;;-6.34;64.18;102232.63;1746678;80;21202;-74
2020/12/07 09:11:35;;;;;;;11.38;5.50;;;;;;;-6.34;64.14;102241.25;1750731;80;21300;-76
2020/12/07 09:14:06;;;;;;;10.85;5.30;;;;;;;-6.31;64.27;102242.34;1780294;78;21145;-73
2020/12/07 09:16:33;;;;;;;9.70;4.78;;;;;;;-6.23;64.25;102239.20;1768790;78;21336;-73
2020/12/07 09:19:01;;;;;;;11.97;5.00;;;;;;;-6.15;64.42;102233.84;1783918;78;21214;-75
2020/12/07 09:21:28;;;;;;;12.23;5.78;;;;;;;-6.05;64.07;102235.34;1752439;80;21178;-73
2020/12/07 09:23:56;;;;;;;12.88;5.17;;;;;;;-6.02;63.83;102232.52;1784345;80;21225;-73
2020/12/07 09:26:23;;;;;;;11.10;5.80;;;;;;;-5.98;63.59;102226.16;1778146;79;21704;-73
2020/12/07 09:28:51;;;;;;;12.33;5.42;;;;;;;-5.97;63.50;102212.20;1759468;80;22061;-74
2020/12/07 09:31:18;;;;;;;11.33;4.83;;;;;;;-5.91;63.52;102212.22;1773504;80;21156;-74
2020/12/07 09:33:47;;;;;;;12.70;5.47;;;;;;;-5.89;63.36;102214.22;1765247;80;21156;-72
2020/12/07 09:36:15;;;;;;;11.75;5.70;;;;;;;-5.84;63.16;102221.25;1759495;80;21131;-73
2020/12/07 09:38:43;;;;;;;12.40;4.97;;;;;;;-5.80;63.07;102216.66;1760180;80;21245;-73
2020/12/07 09:41:10;;;;;;;11.25;5.58;;;;;;;-5.80;63.00;102216.17;1744887;80;21737;-73
2020/12/07 09:43:38;;;;;;;12.15;5.65;;;;;;;-5.72;63.07;102210.45;1755859;80;21204;-72
2020/12/07 09:46:06;;;;;;;8.68;4.75;;;;;;;-5.65;62.89;102216.87;1740723;81;21624;-72
2020/12/07 09:48:34;;;;;;;12.05;5.85;;;;;;;-5.57;62.65;102215.00;1775693;79;21179;-72
2020/12/07 09:51:01;;;;;;;11.97;5.70;;;;;;;-5.54;62.56;102214.31;1778935;79;21189;-72
2020/12/07 09:53:29;;;;;;;11.90;5.22;;;;;;;-5.45;62.66;102214.95;1746198;80;21300;-71
2020/12/07 09:55:56;;;;;;;10.13;5.40;;;;;;;-5.36;62.68;102200.89;1753519;80;21175;-71
2020/12/07 09:58:24;;;;;;;10.58;5.33;;;;;;;-5.26;62.14;102199.30;1772111;80;21153;-71
2020/12/07 10:00:52;;;;;;;11.40;5.50;;;;;;;-5.24;61.80;102193.48;1775572;80;21132;-71
2020/12/07 10:03:20;;;;;;;10.15;5.58;;;;;;;-5.24;61.87;102190.40;1752630;80;21642;-71
2020/12/07 10:05:48;;;;;;;8.83;5.33;;;;;;;-5.26;61.74;102179.28;1764767;80;21457;-72
2020/12/07 10:08:16;;;;;;;12.20;5.65;;;;;;;-5.27;61.59;102176.78;1764447;80;21197;-71
2020/12/07 10:10:43;;;;;;;10.38;5.70;;;;;;;-5.29;61.40;102182.11;1773249;79;21165;-72
2020/12/07 10:13:13;;;;;;;11.03;5.22;;;;;;;-5.32;61.35;102177.61;1769658;78;21181;-71
2020/12/07 10:15:41;;;;;;;11.97;5.90;;;;;;;-5.33;61.61;102168.11;1752164;80;21177;-72
2020/12/07 10:18:08;;;;;;;10.98;5.10;;;;;;;-5.32;61.46;102169.79;1768354;79;21217;-71
2020/12/07 10:20:35;;;;;;;10.32;5.17;;;;;;;-5.32;61.50;102174.52;1764610;79;21331;-69
2020/12/07 10:23:04;;;;;;;10.30;5.60;;;;;;;-5.31;61.45;102174.88;1769929;79;21183;-72
2020/12/07 10:25:31;;;;;;;11.95;5.47;;;;;;;-5.29;61.20;102183.89;1774146;79;21116;-72
2020/12/07 10:27:59;;;;;;;11.45;5.62;;;;;;;-5.29;61.33;102177.38;1749688;80;21215;-71
2020/12/07 10:30:26;;;;;;;9.93;5.03;;;;;;;-5.26;61.34;102175.86;1741154;80;21345;-71
2020/12/07 10:32:54;;;;;;;11.93;5.83;;;;;;;-5.19;61.71;102169.23;1755634;81;21181;-72
2020/12/07 10:35:22;;;;;;;12.43;5.67;;;;;;;-5.12;61.46;102162.63;1744704;80;21222;-71
2020/12/07 10:37:53;;;;;;;12.25;5.37;;;;;;;-5.07;61.18;102163.09;1763823;79;21651;-70
2020/12/07 10:40:20;;;;;;;12.20;6.20;;;;;;;-5.06;60.95;102156.95;1745592;80;21612;-71
2020/12/07 10:42:48;;;;;;;11.08;5.65;;;;;;;-5.11;61.03;102147.34;1784334;79;21954;-70
2020/12/07 10:45:15;;;;;;;10.32;5.17;;;;;;;-5.14;61.08;102151.47;1744019;81;21211;-73
2020/12/07 10:47:42;;;;;;;11.60;5.75;;;;;;;-5.12;61.18;102140.48;1778306;80;21148;-72
2020/12/07 10:50:10;;;;;;;10.72;5.95;;;;;;;-5.13;61.29;102141.87;1758472;80;21211;-72
2020/12/07 10:52:37;;;;;;;9.93;5.00;;;;;;;-5.06;61.42;102153.52;1746658;80;21242;-72
2020/12/07 10:55:05;;;;;;;9.23;5.00;;;;;;;-5.01;61.36;102148.30;1767418;79;21821;-72
2020/12/07 10:57:32;;;;;;;11.55;5.72;;;;;;;-4.98;60.81;102138.13;1774300;80;21163;-73
2020/12/07 11:00:00;;;;;;;10.35;5.12;;;;;;;-4.98;60.91;102132.44;1770496;79;21152;-73
2020/12/07 11:02:27;;;;;;;11.30;5.28;;;;;;;-4.96;60.36;102135.77;1783060;79;21579;-73
2020/12/07 11:04:55;;;;;;;12.45;5.42;;;;;;;-5.02;60.32;102125.81;1757600;79;21180;-72
2020/12/07 11:07:24;;;;;;;10.13;5.25;;;;;;;-5.04;60.19;102122.48;1752010;80;22565;-73
2020/12/07 11:09:54;;;;;;;10.40;5.28;;;;;;;-5.02;60.14;102127.11;1752538;80;21660;-72
2020/12/07 11:12:23;;;;;;;9.78;5.35;;;;;;;-5.01;59.72;102122.72;1775600;79;21668;-73
2020/12/07 11:14:51;;;;;;;11.53;5.70;;;;;;;-5.02;59.83;102123.20;1740373;80;21144;-72
2020/12/07 11:17:19;;;;;;;10.25;5.67;;;;;;;-5.04;59.64;102117.74;1763950;80;21177;-74
2020/12/07 11:19:47;;;;;;;10.90;5.30;;;;;;;-5.03;59.71;102102.48;1775051;80;21222;-73
2020/12/07 11:22:14;;;;;;;9.43;5.05;;;;;;;-5.01;59.87;102110.52;1772103;79;21128;-75
2020/12/07 11:24:42;;;;;;;9.48;4.92;;;;;;;-4.97;59.93;102098.94;1757339;80;21212;-73
2020/12/07 11:27:09;;;;;;;10.60;4.90;;;;;;;-4.96;59.57;102103.67;1766365;79;21614;-74
2020/12/07 11:29:38;;;;;;;10.95;5.72;;;;;;;-4.95;59.69;102104.02;1775889;80;21216;-74
2020/12/07 11:32:06;;;;;;;12.07;5.95;;;;;;;-4.92;59.77;102103.78;1743473;80;21204;-74
2020/12/07 11:34:37;;;;;;;10.80;5.55;;;;;;;-4.85;60.18;102102.84;1740695;80;21167;-75
2020/12/07 11:37:04;;;;;;;10.82;5.28;;;;;;;-4.76;60.03;102094.31;1762172;79;21152;-74
2020/12/07 12:05:48;;;;;;;11.28;5.25;;;;;;;-4.60;61.36;102093.48;1733939;82;21501;-72
2020/12/07 12:08:15;;;;;;;11.12;5.83;;;;;;;-4.65;61.25;102098.69;1775131;79;21164;-73
2020/12/07 12:10:48;;;;;;;12.05;6.50;;;;;;;-4.66;61.08;102095.26;1753846;80;21547;-72
2020/12/07 12:13:16;;;;;;;12.15;5.87;;;;;;;-4.68;60.67;102087.20;1754356;80;21163;-72
2020/12/07 12:15:44;;;;;;;12.53;6.62;;;;;;;-4.68;60.80;102087.20;1770755;80;21930;-72
2020/12/07 12:18:11;;;;;;;12.82;6.83;;;;;;;-4.66;61.15;102090.52;1768807;79;21243;-72
2020/12/07 12:20:42;;;;;;;11.97;6.60;;;;;;;-4.65;61.24;102081.27;1744470;80;21096;-72
2020/12/07 12:23:08;;;;;;;11.50;5.78;;;;;;;-4.69;61.33;102090.28;1737822;80;21195;-72
2020/12/07 12:25:41;;;;;;;15.25;7.22;;;;;;;-4.74;61.33;102095.02;1777753;79;21192;-73
2020/12/07 12:28:09;;;;;;;12.23;6.08;;;;;;;-4.81;61.55;102082.92;1770663;79;21383;-73
2020/12/07 12:30:38;;;;;;;11.30;6.12;;;;;;;-4.82;61.76;102079.16;1752550;80;21200;-72
2020/12/07 12:33:06;;;;;;;13.38;6.53;;;;;;;-4.80;61.97;102083.78;1728692;80;21133;-71
2020/12/07 12:35:34;;;;;;;14.40;6.85;;;;;;;-4.78;61.92;102085.30;1745646;80;21208;-71
2020/12/07 12:38:01;;;;;;;11.48;6.03;;;;;;;-4.80;61.80;102087.22;1777596;80;21113;-71